createdAt,value
2022-10-29T00:14:01.384Z,0.35
2022-10-29T00:29:06.314Z,0.50
2022-10-29T00:44:22.822Z,0.78
2022-10-29T00:59:28.288Z,0.88
2022-10-29T01:15:01.182Z,0.50
2022-10-29T01:30:30.375Z,0.90
2022-10-29T01:45:38.353Z,0.73
2022-10-29T02:01:01.503Z,1.57
2022-10-29T02:16:10.180Z,1.12
2022-10-29T02:31:15.304Z,0.30
2022-10-29T02:46:22.673Z,0.65
2022-10-29T03:01:27.827Z,0.10
2022-10-29T03:16:32.879Z,0.23
2022-10-29T03:31:37.807Z,0.75
2022-10-29T03:46:42.747Z,1.15
2022-10-29T04:01:47.895Z,0.37
2022-10-29T04:16:53.004Z,1.05
2022-10-29T04:31:58.156Z,1.75
2022-10-29T04:47:03.060Z,1.47
2022-10-29T05:02:08.124Z,0.30
2022-10-29T05:17:13.050Z,0.90
2022-10-29T05:32:18.054Z,0.10
2022-10-29T05:47:23.002Z,0.60
2022-10-29T06:02:28.085Z,0.10
2022-10-29T06:17:34.598Z,0.10
2022-10-29T06:32:39.575Z,0.10
2022-10-29T06:47:46.410Z,0.47
2022-10-29T07:02:51.408Z,0.23
2022-10-29T07:17:58.410Z,0.33
2022-10-29T07:33:03.487Z,0.65
2022-10-29T07:48:08.816Z,0.25
2022-10-29T08:03:14.215Z,0.45
2022-10-29T08:18:19.924Z,0.33
2022-10-29T08:33:24.867Z,0.42
2022-10-29T08:48:41.862Z,1.67
2022-10-29T09:03:46.785Z,0.85
2022-10-29T09:18:57.493Z,1.27
2022-10-29T09:34:05.482Z,0.95
2022-10-29T09:49:29.083Z,0.88
2022-10-29T10:04:40.050Z,0.30
2022-10-29T10:19:48.787Z,0.75
2022-10-29T10:34:53.713Z,0.60
2022-10-29T10:50:29.240Z,0.55
2022-10-29T11:05:39.770Z,0.65
2022-10-29T11:20:47.730Z,0.62
2022-10-29T11:36:11.038Z,0.00
2022-10-29T11:51:31.084Z,2.10
2022-10-29T12:06:45.318Z,0.62
2022-10-29T12:22:01.958Z,0.23
2022-10-29T12:37:26.112Z,0.10
2022-10-29T12:52:45.920Z,0.25
2022-10-29T13:07:59.934Z,1.07
2022-10-29T13:23:10.565Z,1.17
2022-10-29T13:38:16.395Z,0.30
2022-10-29T13:53:24.499Z,0.47
2022-10-29T14:08:50.724Z,1.15
2022-10-29T14:24:07.516Z,0.30
2022-10-29T14:39:23.644Z,3.02
2022-10-29T14:54:34.935Z,1.10
2022-10-29T15:09:39.930Z,1.70
2022-10-29T15:24:48.988Z,1.37
2022-10-29T15:40:03.014Z,6.58
2022-10-29T15:55:13.567Z,5.20
2022-10-29T16:10:21.113Z,0.90
2022-10-29T16:25:28.669Z,3.03
2022-10-29T16:40:33.742Z,4.53
2022-10-29T16:55:40.620Z,1.90
2022-10-29T17:10:45.622Z,4.95
2022-10-29T17:25:54.082Z,1.70
2022-10-29T17:40:59.244Z,3.57
2022-10-29T17:56:07.681Z,3.70
2022-10-29T18:11:21.285Z,3.53
2022-10-29T18:26:30.708Z,3.05
2022-10-29T18:41:36.340Z,3.10
2022-10-29T18:56:42.475Z,4.22
2022-10-29T19:11:48.946Z,4.70
2022-10-29T19:26:53.894Z,5.87
2022-10-29T19:41:58.830Z,3.20
2022-10-29T19:57:03.767Z,4.17
2022-10-29T20:12:08.709Z,6.85
2022-10-29T20:27:14.227Z,7.62
2022-10-29T20:42:21.409Z,4.85
2022-10-29T20:57:26.336Z,4.97
2022-10-29T21:12:31.349Z,4.40
2022-10-29T21:27:36.285Z,4.83
2022-10-29T21:42:41.885Z,4.78
2022-10-29T21:57:47.872Z,5.10
2022-10-29T22:12:52.802Z,7.15
2022-10-29T22:27:58.085Z,5.17
2022-10-29T22:43:03.126Z,4.28
2022-10-29T22:58:08.049Z,6.25
2022-10-29T23:13:13.057Z,6.05
2022-10-29T23:28:17.984Z,2.27
2022-10-29T23:43:22.981Z,2.27
2022-10-29T23:58:27.977Z,3.12
